Time;durP1;ratioP1;P1;durP2;ratioP2;P2;SDS_P1;SDS_P2;PMS_P1;PMS_P2;Temp;Humidity;BMP_temperature;BMP_pressure;BME280_temperature;BME280_humidity;BME280_pressure;Samples;Min_cycle;Max_cycle;Signal;HPM_P1;HPM_P2
2022/12/05 00:00:59;;;;;;;5.57;5.07;;;;;;;;;;5078233;28;20264;-85
2022/12/05 00:03:26;;;;;;;7.10;5.93;;;;;;;;;;5077376;28;20685;-84
2022/12/05 00:05:55;;;;;;;7.97;7.15;;;;;;;;;;5076267;28;20260;-87
2022/12/05 00:08:23;;;;;;;8.38;7.20;;;;;;;;;;5077462;28;20623;-87
2022/12/05 00:10:50;;;;;;;8.00;6.75;;;;;;;;;;5078161;28;20211;-87
2022/12/05 00:13:18;;;;;;;7.05;6.35;;;;;;;;;;5078241;28;20264;-87
2022/12/05 00:15:45;;;;;;;6.90;5.95;;;;;;;;;;5079196;28;20841;-87
2022/12/05 00:18:13;;;;;;;6.97;6.28;;;;;;;;;;5077488;28;20264;-87
2022/12/05 00:20:46;;;;;;;8.00;7.15;;;;;;;;;;5078121;28;20258;-87
2022/12/05 00:23:15;;;;;;;7.93;6.30;;;;;;;;;;5077824;28;20231;-87
2022/12/05 00:25:42;;;;;;;9.73;8.18;;;;;;;;;;5077609;28;20648;-87
2022/12/05 00:28:10;;;;;;;10.45;8.10;;;;;;;;;;5077407;28;20317;-86
2022/12/05 00:30:40;;;;;;;8.95;7.18;;;;;;;;;;5078183;28;20713;-87
2022/12/05 00:33:08;;;;;;;8.55;6.88;;;;;;;;;;5078212;28;20228;-87
2022/12/05 00:35:36;;;;;;;7.90;7.10;;;;;;;;;;5078250;28;20228;-88
2022/12/05 00:38:03;;;;;;;9.98;8.63;;;;;;;;;;5077696;28;20325;-85
2022/12/05 00:40:34;;;;;;;9.15;8.25;;;;;;;;;;5057488;28;20209;-86
2022/12/05 00:43:02;;;;;;;9.45;8.13;;;;;;;;;;5058075;28;20268;-86
2022/12/05 00:45:29;;;;;;;8.35;7.55;;;;;;;;;;5058146;28;20259;-86
2022/12/05 00:47:57;;;;;;;8.77;7.60;;;;;;;;;;5056694;28;20261;-85
2022/12/05 00:50:24;;;;;;;9.13;7.78;;;;;;;;;;5057795;28;20256;-85
2022/12/05 00:52:52;;;;;;;9.32;7.85;;;;;;;;;;5057925;28;20201;-87
2022/12/05 00:55:20;;;;;;;9.75;6.95;;;;;;;;;;5057309;28;20281;-85
2022/12/05 00:57:49;;;;;;;8.13;7.32;;;;;;;;;;5058325;28;20233;-86
2022/12/05 01:00:18;;;;;;;8.85;7.43;;;;;;;;;;5057122;28;20206;-86
2022/12/05 01:02:47;;;;;;;9.40;8.05;;;;;;;;;;5060782;28;20308;-86
2022/12/05 01:05:14;;;;;;;9.13;6.95;;;;;;;;;;5064742;28;20249;-87
2022/12/05 01:07:42;;;;;;;7.72;6.20;;;;;;;;;;5057772;28;20198;-87
2022/12/05 01:10:10;;;;;;;8.85;7.20;;;;;;;;;;5057395;28;20292;-87
2022/12/05 01:12:37;;;;;;;6.68;5.72;;;;;;;;;;5057690;28;20289;-87
2022/12/05 01:15:08;;;;;;;6.38;5.78;;;;;;;;;;5058129;28;20209;-87
2022/12/05 01:17:36;;;;;;;6.60;6.00;;;;;;;;;;5057965;28;20225;-86
2022/12/05 01:20:05;;;;;;;6.82;6.13;;;;;;;;;;5058348;28;20261;-87
2022/12/05 01:22:32;;;;;;;6.90;6.20;;;;;;;;;;5058597;28;20296;-87
2022/12/05 01:25:00;;;;;;;6.60;5.75;;;;;;;;;;5058284;28;20241;-86
2022/12/05 01:27:30;;;;;;;9.73;6.50;;;;;;;;;;5057606;28;20299;-87
2022/12/05 01:29:58;;;;;;;6.05;5.45;;;;;;;;;;5057816;28;20275;-87
2022/12/05 01:32:27;;;;;;;10.30;7.38;;;;;;;;;;5058179;28;20638;-86
2022/12/05 01:34:55;;;;;;;6.53;5.93;;;;;;;;;;5057555;28;20255;-86
2022/12/05 01:37:23;;;;;;;4.50;4.10;;;;;;;;;;5061187;28;20663;-87
2022/12/05 01:39:50;;;;;;;7.85;6.82;;;;;;;;;;5060773;28;20290;-87
2022/12/05 01:42:18;;;;;;;5.50;4.95;;;;;;;;;;5060993;28;20292;-87
2022/12/05 01:45:06;;;;;;;5.60;5.00;;;;;;;;;;5061160;28;20297;-87
2022/12/05 01:47:36;;;;;;;4.95;4.40;;;;;;;;;;5061279;28;20700;-85
2022/12/05 01:50:05;;;;;;;5.70;5.18;;;;;;;;;;5060418;28;20241;-87
2022/12/05 01:52:34;;;;;;;5.05;4.63;;;;;;;;;;5061049;28;20353;-86
2022/12/05 01:55:07;;;;;;;6.07;5.47;;;;;;;;;;5061093;28;20774;-86
2022/12/05 01:57:35;;;;;;;5.93;4.93;;;;;;;;;;5060781;28;20255;-87
2022/12/05 02:00:11;;;;;;;8.10;6.38;;;;;;;;;;5060421;28;20225;-86
2022/12/05 02:02:42;;;;;;;5.00;4.50;;;;;;;;;;5058770;28;20201;-87
2022/12/05 02:05:15;;;;;;;7.72;6.05;;;;;;;;;;5058766;28;20205;-87
2022/12/05 02:07:44;;;;;;;5.28;4.78;;;;;;;;;;5057306;28;20232;-88
2022/12/05 02:10:12;;;;;;;4.25;3.85;;;;;;;;;;5057449;28;20240;-89
2022/12/05 02:12:40;;;;;;;7.45;5.28;;;;;;;;;;5056594;28;20304;-90
2022/12/05 02:15:21;;;;;;;7.18;5.95;;;;;;;;;;5056837;28;20233;-88
2022/12/05 02:17:59;;;;;;;8.77;6.72;;;;;;;;;;5056005;28;20666;-88
2022/12/05 02:20:40;;;;;;;8.77;6.53;;;;;;;;;;5057039;28;20225;-89
2022/12/05 02:23:52;;;;;;;7.93;6.93;;;;;;;;;;5057480;28;20698;-89
2022/12/05 02:26:52;;;;;;;8.02;7.25;;;;;;;;;;5057304;28;20584;-88
2022/12/05 02:29:47;;;;;;;7.00;6.10;;;;;;;;;;5061562;28;20300;-89
2022/12/05 02:32:27;;;;;;;7.18;5.82;;;;;;;;;;5077242;28;20323;-89
2022/12/05 02:35:00;;;;;;;6.50;5.30;;;;;;;;;;5079794;28;20272;-87
2022/12/05 02:37:31;;;;;;;5.05;4.55;;;;;;;;;;5079001;28;20197;-87
2022/12/05 02:40:05;;;;;;;3.97;3.55;;;;;;;;;;5078941;28;20287;-85
2022/12/05 02:42:42;;;;;;;4.10;3.65;;;;;;;;;;5079188;28;20255;-86
2022/12/05 02:45:13;;;;;;;5.50;5.00;;;;;;;;;;5079350;28;20220;-87
2022/12/05 02:47:50;;;;;;;5.28;4.78;;;;;;;;;;5078933;28;20228;-85
2022/12/05 02:50:22;;;;;;;6.63;5.57;;;;;;;;;;5078876;28;20188;-86
2022/12/05 02:52:51;;;;;;;5.25;4.68;;;;;;;;;;5078682;28;20249;-87
2022/12/05 02:55:19;;;;;;;7.05;6.45;;;;;;;;;;5078179;28;20197;-85
2022/12/05 02:57:52;;;;;;;7.53;6.28;;;;;;;;;;5077508;28;20221;-85
2022/12/05 03:00:21;;;;;;;6.57;5.78;;;;;;;;;;5076984;28;20284;-85
2022/12/05 03:02:50;;;;;;;6.03;5.38;;;;;;;;;;5077691;28;20208;-87
2022/12/05 03:05:22;;;;;;;5.35;4.88;;;;;;;;;;5077266;28;20232;-85
2022/12/05 03:07:52;;;;;;;6.68;6.07;;;;;;;;;;5077671;28;20197;-86
2022/12/05 03:10:23;;;;;;;6.68;5.15;;;;;;;;;;5077883;28;20296;-87
2022/12/05 03:12:53;;;;;;;7.43;6.28;;;;;;;;;;5078107;28;20201;-86
2022/12/05 03:15:25;;;;;;;7.22;5.93;;;;;;;;;;5078884;28;20641;-85
2022/12/05 03:17:56;;;;;;;8.50;6.85;;;;;;;;;;5077903;28;20316;-87
2022/12/05 03:20:29;;;;;;;6.82;6.10;;;;;;;;;;5076941;28;20190;-87
2022/12/05 03:23:01;;;;;;;5.97;5.40;;;;;;;;;;5077789;28;20272;-87
2022/12/05 03:25:34;;;;;;;7.95;6.68;;;;;;;;;;5074609;28;20231;-86
2022/12/05 03:28:06;;;;;;;5.78;4.97;;;;;;;;;;5073736;28;20304;-87
2022/12/05 03:30:38;;;;;;;7.35;6.60;;;;;;;;;;5073995;28;20217;-85
2022/12/05 03:33:11;;;;;;;6.53;5.88;;;;;;;;;;5073637;28;20322;-86
2022/12/05 03:35:44;;;;;;;7.95;6.03;;;;;;;;;;5073496;28;20215;-86
2022/12/05 03:38:15;;;;;;;6.13;5.30;;;;;;;;;;5074154;28;20271;-86
2022/12/05 03:40:47;;;;;;;4.97;4.47;;;;;;;;;;5074101;28;20270;-87
2022/12/05 03:43:23;;;;;;;7.93;5.85;;;;;;;;;;5074133;28;20711;-85
2022/12/05 03:46:00;;;;;;;7.15;6.07;;;;;;;;;;5073797;28;20614;-87
2022/12/05 03:48:32;;;;;;;7.32;5.70;;;;;;;;;;5073544;28;20312;-85
2022/12/05 03:51:00;;;;;;;7.88;6.90;;;;;;;;;;5073555;28;20224;-84
2022/12/05 03:53:32;;;;;;;6.55;5.95;;;;;;;;;;5073607;28;20302;-86
2022/12/05 03:56:05;;;;;;;8.45;6.47;;;;;;;;;;5073444;28;20234;-84
2022/12/05 03:58:38;;;;;;;6.95;6.07;;;;;;;;;;5073091;28;20418;-87
2022/12/05 04:01:09;;;;;;;7.93;6.97;;;;;;;;;;5073688;28;20191;-86
2022/12/05 04:03:41;;;;;;;5.80;5.30;;;;;;;;;;5074070;28;20684;-87
2022/12/05 04:06:18;;;;;;;6.07;5.03;;;;;;;;;;5073936;28;20675;-87
2022/12/05 04:08:50;;;;;;;6.28;5.07;;;;;;;;;;5073924;28;20688;-87
2022/12/05 04:11:21;;;;;;;6.40;5.80;;;;;;;;;;5074167;28;20691;-87
2022/12/05 04:13:51;;;;;;;5.20;4.70;;;;;;;;;;5073880;28;20670;-86
2022/12/05 04:19:15;;;;;;;5.43;4.85;;;;;;;;;;5073908;28;20752;-85
2022/12/05 04:21:46;;;;;;;6.22;5.07;;;;;;;;;;5073848;28;20276;-85
2022/12/05 04:27:12;;;;;;;7.32;5.45;;;;;;;;;;5073816;28;20208;-86
2022/12/05 04:29:46;;;;;;;5.82;5.25;;;;;;;;;;5073792;28;20311;-88
2022/12/05 04:32:15;;;;;;;6.18;4.85;;;;;;;;;;5073279;28;20238;-86
2022/12/05 04:34:43;;;;;;;7.32;5.65;;;;;;;;;;5073798;28;20292;-85
2022/12/05 04:37:14;;;;;;;6.53;5.25;;;;;;;;;;5073581;28;20233;-87
2022/12/05 04:39:48;;;;;;;5.30;4.80;;;;;;;;;;5073601;28;20304;-87
2022/12/05 04:42:19;;;;;;;5.78;5.07;;;;;;;;;;5073830;28;20185;-87
2022/12/05 04:44:52;;;;;;;5.10;4.68;;;;;;;;;;5073810;28;20673;-85
2022/12/05 04:47:25;;;;;;;6.30;5.45;;;;;;;;;;5073644;28;20282;-88
2022/12/05 04:49:53;;;;;;;5.05;4.50;;;;;;;;;;5073398;28;20312;-87
2022/12/05 04:52:21;;;;;;;6.28;5.15;;;;;;;;;;5073542;28;20282;-86
2022/12/05 04:54:52;;;;;;;5.60;5.10;;;;;;;;;;5073813;28;20644;-85
2022/12/05 04:57:24;;;;;;;5.75;5.20;;;;;;;;;;5073829;28;20288;-86
2022/12/05 04:59:51;;;;;;;4.93;4.40;;;;;;;;;;5073588;28;20259;-86
2022/12/05 05:02:28;;;;;;;6.72;5.35;;;;;;;;;;5073426;28;20244;-86
2022/12/05 05:04:57;;;;;;;5.25;4.72;;;;;;;;;;5073377;28;20189;-86
2022/12/05 05:07:25;;;;;;;4.63;4.22;;;;;;;;;;5073487;28;20307;-87
2022/12/05 05:09:52;;;;;;;4.95;4.53;;;;;;;;;;5074239;28;20335;-86
2022/12/05 05:12:20;;;;;;;4.90;4.47;;;;;;;;;;5077079;28;20731;-84
2022/12/05 05:14:47;;;;;;;5.18;4.70;;;;;;;;;;5076999;28;20246;-85
2022/12/05 05:17:15;;;;;;;6.68;5.25;;;;;;;;;;5076589;28;20208;-85
2022/12/05 05:19:44;;;;;;;4.18;3.83;;;;;;;;;;5076163;28;20717;-86
2022/12/05 05:22:11;;;;;;;4.45;4.03;;;;;;;;;;5076805;28;20265;-86
2022/12/05 05:24:38;;;;;;;5.43;4.65;;;;;;;;;;5076410;28;20292;-85
2022/12/05 05:27:06;;;;;;;3.13;2.85;;;;;;;;;;5076185;28;20273;-85
2022/12/05 05:29:33;;;;;;;4.93;3.83;;;;;;;;;;5076584;28;20308;-86
2022/12/05 05:32:01;;;;;;;4.88;4.43;;;;;;;;;;5076728;28;20236;-87
2022/12/05 05:34:28;;;;;;;4.03;3.72;;;;;;;;;;5076311;28;20635;-86
2022/12/05 05:36:57;;;;;;;4.18;3.38;;;;;;;;;;5076890;28;20631;-85
2022/12/05 05:39:27;;;;;;;4.10;3.70;;;;;;;;;;5076779;28;20316;-86
2022/12/05 05:41:54;;;;;;;3.35;3.05;;;;;;;;;;5077058;28;20601;-85
2022/12/05 05:44:22;;;;;;;2.95;2.75;;;;;;;;;;5076654;28;20291;-87
2022/12/05 05:46:49;;;;;;;3.50;3.20;;;;;;;;;;5076733;28;20228;-88
2022/12/05 05:49:17;;;;;;;3.25;2.95;;;;;;;;;;5076494;28;20296;-86
2022/12/05 05:51:44;;;;;;;3.28;2.95;;;;;;;;;;5076841;28;20207;-85
2022/12/05 05:54:13;;;;;;;2.88;2.65;;;;;;;;;;5076790;28;20250;-88
2022/12/05 05:56:41;;;;;;;2.88;2.67;;;;;;;;;;5076699;28;20758;-85
2022/12/05 05:59:09;;;;;;;2.58;2.38;;;;;;;;;;5077122;28;20300;-87
2022/12/05 06:01:36;;;;;;;4.28;3.10;;;;;;;;;;5076837;28;20211;-85
2022/12/05 06:04:04;;;;;;;2.90;2.70;;;;;;;;;;5076275;28;20748;-86
2022/12/05 06:06:31;;;;;;;2.80;2.60;;;;;;;;;;5077054;28;20635;-85
2022/12/05 06:08:58;;;;;;;2.90;2.65;;;;;;;;;;5076644;28;20274;-87
2022/12/05 06:11:28;;;;;;;3.05;2.55;;;;;;;;;;5076276;28;20291;-85
2022/12/05 06:13:57;;;;;;;2.90;2.65;;;;;;;;;;5075971;28;20233;-86
2022/12/05 06:16:25;;;;;;;2.83;2.63;;;;;;;;;;5075804;28;20641;-87
2022/12/05 06:18:53;;;;;;;2.90;2.70;;;;;;;;;;5075480;28;20260;-85
2022/12/05 06:21:20;;;;;;;2.63;2.42;;;;;;;;;;5075537;28;20196;-85
2022/12/05 06:23:48;;;;;;;3.22;2.92;;;;;;;;;;5075804;28;20307;-85
2022/12/05 06:26:18;;;;;;;2.92;2.72;;;;;;;;;;5075248;28;20236;-86
2022/12/05 06:28:47;;;;;;;2.83;2.63;;;;;;;;;;5075603;28;20725;-87
2022/12/05 06:31:17;;;;;;;2.47;2.30;;;;;;;;;;5076820;28;20293;-86
2022/12/05 06:33:45;;;;;;;2.80;2.60;;;;;;;;;;5076956;28;20288;-87
2022/12/05 06:36:16;;;;;;;2.78;2.58;;;;;;;;;;5076634;28;20291;-87
2022/12/05 06:38:44;;;;;;;2.13;2.03;;;;;;;;;;5076934;28;20648;-86
2022/12/05 06:41:15;;;;;;;2.45;2.25;;;;;;;;;;5075451;28;20260;-86
2022/12/05 06:43:43;;;;;;;2.10;2.00;;;;;;;;;;5073045;28;20206;-85
2022/12/05 06:46:15;;;;;;;2.47;2.28;;;;;;;;;;5073010;28;20278;-85
2022/12/05 06:48:42;;;;;;;2.15;1.95;;;;;;;;;;5062648;28;20221;-85
2022/12/05 06:51:10;;;;;;;2.40;2.20;;;;;;;;;;5060469;28;20661;-87
2022/12/05 06:53:38;;;;;;;2.13;2.03;;;;;;;;;;5054756;28;20208;-85
2022/12/05 06:56:19;;;;;;;2.33;2.15;;;;;;;;;;5055013;28;20721;-86
2022/12/05 06:58:49;;;;;;;2.97;2.72;;;;;;;;;;5056597;28;20257;-85
2022/12/05 07:01:39;;;;;;;3.42;2.38;;;;;;;;;;5056237;28;20194;-85
2022/12/05 07:04:12;;;;;;;3.22;2.72;;;;;;;;;;5054972;28;20221;-84
2022/12/05 07:06:41;;;;;;;2.28;2.08;;;;;;;;;;5055335;28;20186;-85
2022/12/05 07:09:09;;;;;;;2.60;2.40;;;;;;;;;;5063324;28;20225;-87
2022/12/05 07:11:37;;;;;;;2.33;2.20;;;;;;;;;;5075180;28;20250;-87
2022/12/05 07:14:05;;;;;;;2.80;2.50;;;;;;;;;;5075230;28;20225;-86
2022/12/05 07:16:34;;;;;;;3.35;2.38;;;;;;;;;;5075259;28;20284;-87
2022/12/05 07:19:02;;;;;;;2.60;2.40;;;;;;;;;;5074753;28;20311;-86
2022/12/05 07:21:29;;;;;;;2.47;2.33;;;;;;;;;;5074860;28;20247;-87
2022/12/05 07:23:56;;;;;;;2.78;2.25;;;;;;;;;;5075198;28;20272;-87
2022/12/05 07:26:25;;;;;;;1.70;1.60;;;;;;;;;;5075075;28;20296;-86
2022/12/05 07:28:55;;;;;;;1.90;1.80;;;;;;;;;;5074751;28;20281;-87
2022/12/05 07:31:24;;;;;;;2.53;2.33;;;;;;;;;;5074779;28;20296;-86
2022/12/05 07:33:53;;;;;;;2.00;1.90;;;;;;;;;;5074359;28;20339;-87
2022/12/05 07:36:23;;;;;;;2.05;1.90;;;;;;;;;;5074969;28;20323;-86
2022/12/05 07:38:56;;;;;;;2.22;2.03;;;;;;;;;;5073942;28;20224;-86
2022/12/05 07:41:25;;;;;;;2.88;2.63;;;;;;;;;;5074754;28;20224;-85
2022/12/05 07:43:54;;;;;;;2.58;2.30;;;;;;;;;;5074407;28;20674;-84
2022/12/05 07:46:22;;;;;;;2.45;2.25;;;;;;;;;;5073819;28;20240;-86
2022/12/05 07:48:51;;;;;;;2.70;2.50;;;;;;;;;;5074435;28;20236;-86
2022/12/05 07:51:20;;;;;;;2.70;2.50;;;;;;;;;;5074191;28;20208;-85
2022/12/05 07:53:48;;;;;;;2.53;2.33;;;;;;;;;;5073969;28;20235;-85
2022/12/05 07:56:17;;;;;;;2.55;2.35;;;;;;;;;;5073607;28;20284;-85
2022/12/05 07:58:47;;;;;;;2.15;2.05;;;;;;;;;;5073373;28;20306;-85
2022/12/05 08:01:16;;;;;;;2.53;2.33;;;;;;;;;;5073106;28;20799;-86
2022/12/05 08:03:45;;;;;;;2.03;1.90;;;;;;;;;;5073842;28;20264;-86
2022/12/05 08:06:16;;;;;;;2.55;2.15;;;;;;;;;;5073639;28;20197;-87
2022/12/05 08:08:44;;;;;;;2.05;1.90;;;;;;;;;;5073755;28;20319;-87
2022/12/05 08:11:15;;;;;;;1.83;1.73;;;;;;;;;;5073570;28;20239;-86
2022/12/05 08:13:43;;;;;;;2.05;1.85;;;;;;;;;;5073297;28;20272;-87
2022/12/05 08:16:13;;;;;;;2.08;1.98;;;;;;;;;;5073476;28;20228;-87
2022/12/05 08:18:41;;;;;;;1.92;1.67;;;;;;;;;;5073717;28;20370;-86
2022/12/05 08:21:12;;;;;;;1.30;1.20;;;;;;;;;;5073446;28;20296;-87
2022/12/05 08:23:42;;;;;;;1.50;1.40;;;;;;;;;;5073970;28;20613;-84
2022/12/05 08:26:12;;;;;;;1.20;1.20;;;;;;;;;;5073922;28;20411;-87
2022/12/05 08:28:40;;;;;;;1.95;1.85;;;;;;;;;;5073565;28;20225;-85
2022/12/05 08:31:10;;;;;;;2.47;2.20;;;;;;;;;;5074383;28;20247;-87
2022/12/05 08:33:38;;;;;;;2.40;2.15;;;;;;;;;;5073643;28;20291;-85
2022/12/05 08:36:08;;;;;;;2.20;2.00;;;;;;;;;;5073588;28;20236;-87
2022/12/05 08:38:36;;;;;;;1.80;1.70;;;;;;;;;;5073873;28;20308;-87
2022/12/05 08:41:07;;;;;;;1.80;1.70;;;;;;;;;;5073475;28;20197;-87
2022/12/05 08:43:34;;;;;;;2.08;1.98;;;;;;;;;;5074274;28;20528;-86
2022/12/05 08:46:02;;;;;;;1.83;1.73;;;;;;;;;;5077404;28;20752;-84
2022/12/05 08:48:31;;;;;;;1.88;1.77;;;;;;;;;;5077817;28;20308;-87
2022/12/05 08:51:04;;;;;;;2.65;2.10;;;;;;;;;;5077784;28;20652;-86
2022/12/05 08:53:31;;;;;;;3.20;2.75;;;;;;;;;;5077734;28;20269;-87
2022/12/05 08:56:01;;;;;;;1.90;1.80;;;;;;;;;;5077544;28;20746;-83
2022/12/05 08:58:31;;;;;;;2.05;1.95;;;;;;;;;;5077321;28;20224;-85
2022/12/05 09:01:05;;;;;;;2.03;1.92;;;;;;;;;;5074882;28;20304;-84
2022/12/05 09:03:33;;;;;;;2.45;2.25;;;;;;;;;;5056481;28;20189;-84
2022/12/05 09:06:12;;;;;;;3.42;3.08;;;;;;;;;;5056282;28;20292;-84
2022/12/05 09:08:40;;;;;;;3.30;3.08;;;;;;;;;;5060637;28;20259;-86
2022/12/05 09:11:09;;;;;;;3.05;2.85;;;;;;;;;;5076712;28;20292;-86
2022/12/05 09:13:38;;;;;;;2.95;2.75;;;;;;;;;;5077079;28;20574;-87
2022/12/05 09:16:07;;;;;;;3.58;3.25;;;;;;;;;;5077277;28;20225;-85
2022/12/05 09:18:36;;;;;;;3.47;3.22;;;;;;;;;;5076673;28;20728;-84
2022/12/05 09:21:08;;;;;;;5.30;4.82;;;;;;;;;;5077187;28;20201;-84
2022/12/05 09:23:36;;;;;;;3.85;3.55;;;;;;;;;;5076831;28;20284;-85
2022/12/05 09:26:05;;;;;;;3.70;3.35;;;;;;;;;;5084276;28;20229;-86
2022/12/05 09:28:33;;;;;;;3.28;2.97;;;;;;;;;;5083523;28;20221;-85
2022/12/05 09:31:05;;;;;;;2.55;2.40;;;;;;;;;;5083328;28;20631;-86
2022/12/05 09:33:35;;;;;;;3.22;3.03;;;;;;;;;;5083481;28;20270;-86
2022/12/05 09:36:04;;;;;;;3.38;3.08;;;;;;;;;;5083944;28;20211;-86
2022/12/05 09:38:31;;;;;;;2.63;2.42;;;;;;;;;;5082797;28;20229;-86
2022/12/05 09:41:08;;;;;;;2.83;2.38;;;;;;;;;;5084812;28;20749;-85
2022/12/05 09:43:44;;;;;;;2.00;1.90;;;;;;;;;;5086190;28;20211;-85
2022/12/05 09:46:20;;;;;;;2.70;2.17;;;;;;;;;;5082963;28;20223;-85
2022/12/05 09:48:48;;;;;;;2.20;2.08;;;;;;;;;;5081092;28;20228;-85
2022/12/05 09:51:15;;;;;;;1.98;1.88;;;;;;;;;;5082075;28;20259;-85
2022/12/05 09:53:44;;;;;;;2.70;2.50;;;;;;;;;;5083428;28;20284;-85
2022/12/05 09:56:21;;;;;;;3.58;3.28;;;;;;;;;;5083481;28;20235;-85
2022/12/05 09:58:50;;;;;;;3.47;3.17;;;;;;;;;;5082450;28;20282;-84
2022/12/05 10:01:37;;;;;;;2.83;2.63;;;;;;;;;;5082361;28;20666;-85
2022/12/05 10:04:43;;;;;;;3.20;2.90;;;;;;;;;;5081772;28;20197;-84
2022/12/05 10:07:16;;;;;;;2.80;2.60;;;;;;;;;;5080678;28;20306;-82
2022/12/05 10:09:59;;;;;;;3.22;3.03;;;;;;;;;;5081665;28;20335;-85
2022/12/05 10:12:53;;;;;;;3.70;3.40;;;;;;;;;;5081693;28;20218;-84
2022/12/05 10:15:28;;;;;;;5.70;5.05;;;;;;;;;;5081336;28;20231;-83
2022/12/05 10:18:02;;;;;;;5.53;5.03;;;;;;;;;;5080751;28;20311;-84
2022/12/05 10:20:34;;;;;;;8.13;6.13;;;;;;;;;;5080822;28;20288;-84
2022/12/05 10:23:06;;;;;;;6.63;4.82;;;;;;;;;;5080967;28;20197;-85
2022/12/05 10:25:35;;;;;;;4.55;4.15;;;;;;;;;;5081302;28;20201;-83
2022/12/05 10:28:10;;;;;;;4.18;3.85;;;;;;;;;;5080558;28;20713;-85
2022/12/05 10:30:40;;;;;;;3.75;3.45;;;;;;;;;;5077275;28;20208;-86
2022/12/05 10:33:15;;;;;;;3.08;2.88;;;;;;;;;;5077530;28;20201;-86
2022/12/05 10:35:43;;;;;;;4.25;3.95;;;;;;;;;;5078789;28;20216;-85
2022/12/05 10:38:15;;;;;;;4.95;4.50;;;;;;;;;;5079158;28;20256;-86
2022/12/05 10:40:46;;;;;;;3.28;3.00;;;;;;;;;;5078409;28;20531;-86
2022/12/05 10:43:16;;;;;;;3.72;2.90;;;;;;;;;;5077356;28;20232;-85
2022/12/05 10:45:46;;;;;;;4.53;4.13;;;;;;;;;;5077613;28;20630;-85
2022/12/05 10:48:18;;;;;;;6.15;5.15;;;;;;;;;;5078256;28;20739;-85
2022/12/05 10:50:49;;;;;;;5.38;4.60;;;;;;;;;;5078106;28;20282;-86
2022/12/05 10:53:21;;;;;;;4.80;4.40;;;;;;;;;;5077882;28;20217;-86
2022/12/05 10:55:50;;;;;;;5.10;4.60;;;;;;;;;;5078183;28;20247;-85
2022/12/05 10:58:22;;;;;;;6.28;5.68;;;;;;;;;;5077459;28;20220;-87
2022/12/05 11:00:51;;;;;;;5.35;4.85;;;;;;;;;;5077860;28;20291;-87
2022/12/05 11:03:32;;;;;;;6.35;5.75;;;;;;;;;;5078241;28;20933;-87
2022/12/05 11:06:02;;;;;;;4.90;4.50;;;;;;;;;;5077499;28;20236;-87
2022/12/05 11:08:32;;;;;;;4.35;3.95;;;;;;;;;;5074982;28;20252;-87
2022/12/05 11:11:06;;;;;;;4.75;4.35;;;;;;;;;;5059245;28;20202;-87
2022/12/05 11:13:35;;;;;;;6.82;5.45;;;;;;;;;;5058339;28;20638;-87
2022/12/05 11:16:03;;;;;;;4.53;4.13;;;;;;;;;;5058684;28;20265;-87
2022/12/05 11:18:35;;;;;;;5.10;4.40;;;;;;;;;;5057708;28;20229;-87
2022/12/05 11:21:11;;;;;;;4.95;4.55;;;;;;;;;;5058529;28;20200;-86
2022/12/05 11:23:39;;;;;;;4.60;4.20;;;;;;;;;;5057971;28;20277;-86
2022/12/05 11:26:19;;;;;;;5.38;4.65;;;;;;;;;;5058074;28;20203;-86
2022/12/05 11:28:46;;;;;;;3.65;3.30;;;;;;;;;;5057906;28;20385;-86
2022/12/05 11:31:28;;;;;;;3.83;3.53;;;;;;;;;;5057758;28;20325;-87
2022/12/05 11:34:14;;;;;;;4.13;3.75;;;;;;;;;;5057594;28;20232;-87
2022/12/05 11:36:46;;;;;;;4.03;3.72;;;;;;;;;;5057693;28;20285;-87
2022/12/05 11:39:14;;;;;;;5.13;4.63;;;;;;;;;;5059461;28;20752;-87
2022/12/05 11:42:20;;;;;;;5.03;3.78;;;;;;;;;;5058114;28;20209;-87
2022/12/05 11:45:09;;;;;;;5.00;4.07;;;;;;;;;;5057566;28;20277;-86
2022/12/05 11:47:56;;;;;;;4.22;3.83;;;;;;;;;;5056961;28;20742;-85
2022/12/05 11:50:40;;;;;;;3.90;3.60;;;;;;;;;;5057549;28;20277;-86
2022/12/05 11:53:32;;;;;;;4.05;3.70;;;;;;;;;;5057558;28;20182;-87
2022/12/05 11:56:09;;;;;;;6.80;5.28;;;;;;;;;;5057308;28;20540;-85
2022/12/05 11:58:53;;;;;;;4.15;3.75;;;;;;;;;;5056955;28;20253;-85
2022/12/05 12:01:32;;;;;;;4.32;3.90;;;;;;;;;;5057248;28;20221;-87
2022/12/05 12:04:46;;;;;;;5.68;5.18;;;;;;;;;;5057430;28;20276;-87
2022/12/05 12:07:41;;;;;;;5.38;4.53;;;;;;;;;;5022406;28;20731;-87
2022/12/05 12:10:21;;;;;;;8.27;6.93;;;;;;;;;;5070738;28;20211;-87
2022/12/05 12:13:03;;;;;;;9.90;6.43;;;;;;;;;;5076533;28;20287;-87
2022/12/05 12:15:52;;;;;;;6.00;4.50;;;;;;;;;;5064440;28;20233;-86
2022/12/05 12:18:47;;;;;;;6.53;5.03;;;;;;;;;;5057118;28;20221;-86
2022/12/05 12:21:19;;;;;;;6.32;5.75;;;;;;;;;;5054722;28;20662;-86
2022/12/05 12:24:05;;;;;;;6.63;5.50;;;;;;;;;;5057806;28;20225;-87
2022/12/05 12:26:42;;;;;;;7.57;5.22;;;;;;;;;;5057809;28;20229;-86
2022/12/05 12:29:32;;;;;;;5.78;5.03;;;;;;;;;;5058168;28;20308;-86
2022/12/05 12:32:16;;;;;;;4.63;4.15;;;;;;;;;;5058168;28;20253;-87
2022/12/05 12:35:03;;;;;;;4.45;4.05;;;;;;;;;;5058290;28;20251;-88
2022/12/05 12:37:39;;;;;;;5.22;4.25;;;;;;;;;;5057438;28;20185;-87
2022/12/05 12:40:18;;;;;;;4.82;4.25;;;;;;;;;;5075057;28;20246;-87
2022/12/05 12:42:56;;;;;;;4.63;4.18;;;;;;;;;;5077651;28;20224;-86
2022/12/05 12:45:57;;;;;;;5.60;4.40;;;;;;;;;;5076661;28;20220;-86
2022/12/05 12:48:43;;;;;;;5.20;4.65;;;;;;;;;;5075954;28;20625;-86
2022/12/05 12:51:13;;;;;;;3.50;3.20;;;;;;;;;;5076235;28;20667;-86
2022/12/05 12:54:09;;;;;;;5.63;3.70;;;;;;;;;;5075990;28;20272;-86
2022/12/05 12:56:46;;;;;;;4.47;3.88;;;;;;;;;;5076791;28;20192;-87
2022/12/05 12:59:47;;;;;;;5.80;4.28;;;;;;;;;;5076204;28;20243;-88
2022/12/05 13:02:20;;;;;;;5.13;4.50;;;;;;;;;;5077972;28;20272;-85
2022/12/05 13:04:52;;;;;;;5.03;4.45;;;;;;;;;;5078418;28;20711;-86
2022/12/05 13:07:25;;;;;;;4.82;4.38;;;;;;;;;;5078290;28;20209;-86
2022/12/05 13:09:55;;;;;;;5.55;5.03;;;;;;;;;;5076950;28;20240;-84
2022/12/05 13:12:27;;;;;;;6.78;6.05;;;;;;;;;;5076589;28;20240;-85
2022/12/05 13:14:59;;;;;;;5.78;4.65;;;;;;;;;;5076307;28;20255;-85
2022/12/05 13:17:27;;;;;;;12.77;10.32;;;;;;;;;;5077658;28;20208;-86
2022/12/05 13:19:56;;;;;;;9.23;7.78;;;;;;;;;;5076181;28;20250;-87
2022/12/05 13:22:25;;;;;;;5.93;5.03;;;;;;;;;;5076061;28;20208;-86
2022/12/05 13:24:54;;;;;;;8.13;5.63;;;;;;;;;;5075411;28;20243;-86
2022/12/05 13:27:26;;;;;;;5.72;4.30;;;;;;;;;;5075092;28;20236;-85
2022/12/05 13:29:57;;;;;;;6.78;4.55;;;;;;;;;;5075226;28;20217;-86
2022/12/05 13:32:29;;;;;;;7.10;5.32;;;;;;;;;;5081002;28;20296;-86
2022/12/05 13:34:58;;;;;;;5.18;4.40;;;;;;;;;;5080244;28;20184;-85
2022/12/05 13:43:18;;;;;;;9.63;8.13;;;;;;;;;;5081561;28;20184;-86
2022/12/05 13:46:01;;;;;;;8.05;7.25;;;;;;;;;;5081294;28;20200;-86
2022/12/05 13:48:30;;;;;;;7.57;6.10;;;;;;;;;;5080964;28;20252;-85
2022/12/05 13:51:01;;;;;;;10.30;7.35;;;;;;;;;;5081689;28;20224;-85
2022/12/05 13:53:37;;;;;;;6.10;5.50;;;;;;;;;;5082925;28;20217;-86
2022/12/05 13:56:22;;;;;;;6.53;5.32;;;;;;;;;;5083135;28;20172;-85
2022/12/05 13:58:53;;;;;;;6.78;6.13;;;;;;;;;;5082732;28;20308;-85
2022/12/05 14:01:49;;;;;;;5.88;5.32;;;;;;;;;;5082730;28;20253;-85
2022/12/05 14:04:49;;;;;;;6.70;5.10;;;;;;;;;;5082587;28;20208;-85
2022/12/05 14:07:42;;;;;;;8.57;5.95;;;;;;;;;;5083150;28;20626;-85
2022/12/05 14:10:12;;;;;;;5.25;4.75;;;;;;;;;;5082902;28;20606;-85
2022/12/05 14:12:55;;;;;;;7.28;5.97;;;;;;;;;;5082654;28;20220;-85
2022/12/05 14:15:36;;;;;;;6.30;5.47;;;;;;;;;;5083127;28;20204;-86
2022/12/05 14:18:15;;;;;;;5.93;4.57;;;;;;;;;;5082065;28;20715;-86
2022/12/05 14:20:53;;;;;;;4.85;4.43;;;;;;;;;;5082601;28;20189;-87
2022/12/05 14:23:49;;;;;;;5.63;4.95;;;;;;;;;;5085212;28;20264;-87
2022/12/05 14:26:31;;;;;;;6.80;5.07;;;;;;;;;;5086747;28;20192;-87
2022/12/05 14:29:18;;;;;;;7.05;4.68;;;;;;;;;;5080085;28;20228;-88
2022/12/05 14:32:01;;;;;;;5.47;4.50;;;;;;;;;;5079101;28;20277;-87
2022/12/05 14:34:30;;;;;;;6.72;5.45;;;;;;;;;;5077696;28;20283;-87
2022/12/05 14:37:02;;;;;;;6.32;5.43;;;;;;;;;;5078665;28;20208;-87
2022/12/05 14:39:42;;;;;;;9.27;7.50;;;;;;;;;;5077842;28;20217;-86
2022/12/05 14:42:25;;;;;;;6.60;5.95;;;;;;;;;;5078603;28;20630;-87
2022/12/05 14:44:57;;;;;;;7.65;6.85;;;;;;;;;;5077852;28;20458;-88
2022/12/05 14:47:28;;;;;;;10.48;9.35;;;;;;;;;;5078163;28;20272;-87
2022/12/05 14:50:02;;;;;;;27.80;18.17;;;;;;;;;;5078542;28;20221;-87
2022/12/05 14:52:33;;;;;;;29.80;18.23;;;;;;;;;;5078054;28;20239;-86
2022/12/05 14:55:06;;;;;;;15.63;10.50;;;;;;;;;;5079051;28;20334;-88
2022/12/05 14:57:36;;;;;;;8.57;7.30;;;;;;;;;;5079094;28;20217;-87
2022/12/05 15:00:08;;;;;;;7.88;6.75;;;;;;;;;;5078943;28;20181;-86
2022/12/05 15:02:43;;;;;;;6.25;4.88;;;;;;;;;;5078707;28;20264;-88
2022/12/05 15:05:22;;;;;;;8.57;5.22;;;;;;;;;;5077659;28;20228;-87
2022/12/05 15:07:51;;;;;;;9.82;7.32;;;;;;;;;;5078559;28;20267;-87
2022/12/05 15:10:23;;;;;;;8.48;7.13;;;;;;;;;;5078149;28;20524;-87
2022/12/05 15:12:54;;;;;;;9.98;8.63;;;;;;;;;;5078397;28;20296;-87
2022/12/05 15:15:30;;;;;;;13.40;8.95;;;;;;;;;;5077543;28;20499;-88
2022/12/05 15:18:04;;;;;;;13.30;9.98;;;;;;;;;;5077233;28;20280;-88
2022/12/05 15:20:38;;;;;;;9.07;7.32;;;;;;;;;;5100457;22;20231;-84
2022/12/05 15:23:42;;;;;;;7.30;5.88;;;;;;;;;;5097656;28;20289;-83
2022/12/05 15:26:21;;;;;;;8.38;6.85;;;;;;;;;;5096312;28;20228;-83
2022/12/05 15:29:05;;;;;;;6.93;6.13;;;;;;;;;;5095736;28;20601;-81